createdAt,value
2023-08-08T00:01:28.322Z,101380.78
2023-08-08T00:03:54.834Z,101382.66
2023-08-08T00:06:21.304Z,101379.97
2023-08-08T00:08:47.720Z,101385.38
2023-08-08T00:11:14.181Z,101378.50
2023-08-08T00:13:40.634Z,101368.25
2023-08-08T00:16:07.161Z,101372.00
2023-08-08T00:18:33.639Z,101369.09
2023-08-08T00:21:00.144Z,101362.19
2023-08-08T00:23:26.577Z,101361.38
2023-08-08T00:25:53.641Z,101367.63
2023-08-08T00:28:20.197Z,101356.78
2023-08-08T00:30:46.737Z,101348.63
2023-08-08T00:33:13.230Z,101361.97
2023-08-08T00:35:39.813Z,101361.97
2023-08-08T00:38:06.410Z,101352.16
2023-08-08T00:40:32.826Z,101351.09
2023-08-08T00:42:59.308Z,101351.97
2023-08-08T00:45:25.889Z,101358.22
2023-08-08T00:47:52.713Z,101365.31
2023-08-08T00:50:19.419Z,101358.81
2023-08-08T00:52:46.360Z,101353.41
2023-08-08T00:55:13.254Z,101353.63
2023-08-08T00:57:39.846Z,101351.09
2023-08-08T01:00:08.189Z,101350.50
2023-08-08T01:02:34.798Z,101356.19
2023-08-08T01:05:02.781Z,101346.13
2023-08-08T01:07:44.771Z,101345.06
2023-08-08T01:10:16.793Z,101353.81
2023-08-08T01:12:49.648Z,101351.09
2023-08-08T01:15:18.052Z,101364.25
2023-08-08T01:17:45.242Z,101354.03
2023-08-08T01:20:15.723Z,101344.81
2023-08-08T01:23:13.287Z,101349.00
2023-08-08T01:25:41.391Z,101340.84
2023-08-08T01:28:08.824Z,101338.13
2023-08-08T01:30:35.250Z,101347.94
2023-08-08T01:33:02.444Z,101343.09
2023-08-08T01:35:32.479Z,101343.09
2023-08-08T01:38:09.766Z,101347.69
2023-08-08T01:40:39.000Z,101336.25
2023-08-08T01:43:05.743Z,101341.88
2023-08-08T01:45:32.189Z,101331.66
2023-08-08T01:47:58.664Z,101335.44
2023-08-08T01:50:26.549Z,101327.06
2023-08-08T01:52:53.000Z,101330.41
2023-08-08T01:55:20.790Z,101327.47
2023-08-08T01:57:47.256Z,101320.97
2023-08-08T02:00:14.098Z,101317.41
2023-08-08T02:02:43.985Z,101313.88
2023-08-08T02:05:11.733Z,101313.06
2023-08-08T02:07:38.590Z,101313.28
2023-08-08T02:10:05.437Z,101311.59
2023-08-08T02:12:32.213Z,101310.75
2023-08-08T02:14:58.842Z,101311.59
2023-08-08T02:17:26.626Z,101309.50
2023-08-08T02:19:53.604Z,101300.28
2023-08-08T02:22:20.123Z,101312.81
2023-08-08T02:24:46.586Z,101310.34
2023-08-08T02:27:13.875Z,101311.16
2023-08-08T02:29:40.323Z,101317.88
2023-08-08T02:32:07.253Z,101316.81
2023-08-08T02:34:33.722Z,101317.66
2023-08-08T02:37:00.164Z,101305.34
2023-08-08T02:39:26.651Z,101303.09
2023-08-08T02:41:53.081Z,101298.69
2023-08-08T02:44:20.751Z,101299.13
2023-08-08T02:46:47.268Z,101301.63
2023-08-08T02:49:13.958Z,101298.09
2023-08-08T02:51:40.665Z,101294.75
2023-08-08T02:54:07.539Z,101294.53
2023-08-08T02:56:35.867Z,101293.72
2023-08-08T02:59:02.543Z,101292.84
2023-08-08T03:01:29.177Z,101289.09
2023-08-08T03:03:58.419Z,101292.25
2023-08-08T03:06:26.357Z,101289.97
2023-08-08T03:08:53.083Z,101287.06
2023-08-08T03:11:19.537Z,101286.44
2023-08-08T03:13:47.914Z,101293.75
2023-08-08T03:16:14.529Z,101283.13
2023-08-08T03:18:41.744Z,101275.78
2023-08-08T03:21:08.328Z,101274.97
2023-08-08T03:23:35.489Z,101273.75
2023-08-08T03:26:02.040Z,101276.66
2023-08-08T03:28:28.503Z,101267.69
2023-08-08T03:30:56.889Z,101270.41
2023-08-08T03:33:23.598Z,101269.56
2023-08-08T03:35:50.060Z,101275.00
2023-08-08T03:38:18.249Z,101270.63
2023-08-08T03:40:45.170Z,101267.28
2023-08-08T03:43:12.055Z,101269.41
2023-08-08T03:45:38.565Z,101272.13
2023-08-08T03:48:05.386Z,101263.97
2023-08-08T03:50:32.062Z,101256.84
2023-08-08T03:52:58.872Z,101255.63
2023-08-08T03:55:25.407Z,101257.50
2023-08-08T03:57:51.924Z,101257.31
2023-08-08T04:00:18.794Z,101250.19
2023-08-08T04:02:45.311Z,101256.25
2023-08-08T04:05:13.316Z,101252.91
2023-08-08T04:07:39.838Z,101251.88
2023-08-08T04:10:06.696Z,101254.59
2023-08-08T04:12:33.928Z,101248.34
2023-08-08T04:15:00.522Z,101256.50
2023-08-08T04:17:27.045Z,101251.88
2023-08-08T04:19:53.665Z,101248.78
2023-08-08T04:22:20.119Z,101252.75
2023-08-08T04:24:46.718Z,101254.03
2023-08-08T04:27:13.249Z,101254.22
2023-08-08T04:29:39.721Z,101254.22
2023-08-08T04:32:06.568Z,101252.59
2023-08-08T04:34:33.050Z,101251.94
2023-08-08T04:36:59.493Z,101251.94
2023-08-08T04:39:25.945Z,101251.13
2023-08-08T04:41:52.430Z,101254.06
2023-08-08T04:44:18.893Z,101256.78
2023-08-08T04:46:45.481Z,101264.28
2023-08-08T04:49:11.920Z,101267.00
2023-08-08T04:51:38.359Z,101265.56
2023-08-08T04:54:05.040Z,101264.09
2023-08-08T04:56:31.561Z,101267.22
2023-08-08T04:58:58.236Z,101261.59
2023-08-08T05:01:24.754Z,101259.72
2023-08-08T05:03:53.688Z,101256.78
2023-08-08T05:06:21.805Z,101252.16
2023-08-08T05:08:49.628Z,101252.84
2023-08-08T05:11:16.094Z,101250.28
2023-08-08T05:13:43.895Z,101250.94
2023-08-08T05:16:10.374Z,101253.88
2023-08-08T05:18:36.893Z,101246.59
2023-08-08T05:21:03.397Z,101248.63
2023-08-08T05:23:29.835Z,101248.44
2023-08-08T05:25:56.296Z,101251.16
2023-08-08T05:28:22.858Z,101263.03
2023-08-08T05:30:49.398Z,101253.88
2023-08-08T05:33:15.867Z,101259.72
2023-08-08T05:35:42.294Z,101260.31
2023-08-08T05:38:08.782Z,101260.97
2023-08-08T05:40:37.163Z,101262.63
2023-08-08T05:43:04.680Z,101262.63
2023-08-08T05:45:31.209Z,101256.56
2023-08-08T05:47:57.885Z,101263.47
2023-08-08T05:50:24.486Z,101265.53
2023-08-08T05:52:50.963Z,101263.44
2023-08-08T05:55:17.603Z,101270.53
2023-08-08T05:57:44.045Z,101264.03
2023-08-08T06:00:12.368Z,101263.22
2023-08-08T06:02:42.442Z,101268.22
2023-08-08T06:05:09.298Z,101264.22
2023-08-08T06:07:36.015Z,101272.16
2023-08-08T06:10:02.540Z,101260.63
2023-08-08T06:12:29.168Z,101264.56
2023-08-08T06:14:55.673Z,101263.72
2023-08-08T06:17:24.428Z,101261.16
2023-08-08T06:19:51.410Z,101265.31
2023-08-08T06:22:18.222Z,101271.75
2023-08-08T06:24:44.933Z,101272.31
2023-08-08T06:27:11.650Z,101271.22
2023-08-08T06:29:38.057Z,101272.66
2023-08-08T06:32:04.680Z,101277.44
2023-08-08T06:34:31.235Z,101275.09
2023-08-08T06:36:57.746Z,101271.75
2023-08-08T06:39:24.312Z,101270.53
2023-08-08T06:41:50.791Z,101269.28
2023-08-08T06:44:22.476Z,101278.25
2023-08-08T06:46:48.974Z,101283.03
2023-08-08T06:49:15.381Z,101279.88
2023-08-08T06:51:41.768Z,101278.22
2023-08-08T06:54:08.942Z,101271.28
2023-08-08T06:56:35.448Z,101267.88
2023-08-08T06:59:01.884Z,101273.31
2023-08-08T07:01:28.630Z,101277.16
2023-08-08T07:03:55.145Z,101269.38
2023-08-08T07:06:21.557Z,101274.59
2023-08-08T07:08:47.989Z,101268.72
2023-08-08T07:11:14.476Z,101272.84
2023-08-08T07:13:41.764Z,101274.94
2023-08-08T07:16:08.283Z,101260.03
2023-08-08T07:18:34.812Z,101274.25
2023-08-08T07:21:01.592Z,101276.06
2023-08-08T07:23:28.069Z,101259.75
2023-08-08T07:25:54.504Z,101260.81
2023-08-08T07:28:20.919Z,101265.41
2023-08-08T07:30:47.446Z,101260.00
2023-08-08T07:33:14.677Z,101258.53
2023-08-08T07:35:41.274Z,101269.03
2023-08-08T07:38:07.860Z,101269.41
2023-08-08T07:40:34.438Z,101259.84
2023-08-08T07:43:00.909Z,101270.31
2023-08-08T07:45:27.391Z,101257.31
2023-08-08T07:47:53.873Z,101261.06
2023-08-08T07:50:20.436Z,101250.91
2023-08-08T07:52:46.881Z,101250.88
2023-08-08T07:55:13.699Z,101256.09
2023-08-08T07:57:40.623Z,101254.44
2023-08-08T08:00:13.079Z,101255.50
2023-08-08T08:02:44.750Z,101259.00
2023-08-08T08:05:11.779Z,101251.88
2023-08-08T08:07:39.171Z,101261.03
2023-08-08T08:10:08.685Z,101255.78
2023-08-08T08:12:36.011Z,101248.69
2023-08-08T08:15:03.294Z,101261.22
2023-08-08T08:17:30.259Z,101252.63
2023-08-08T08:19:56.695Z,101255.13
2023-08-08T08:22:23.373Z,101255.59
2023-08-08T08:24:49.818Z,101244.63
2023-08-08T08:27:16.402Z,101252.25
2023-08-08T08:29:42.905Z,101248.63
2023-08-08T08:32:09.843Z,101242.22
2023-08-08T08:34:36.323Z,101254.59
2023-08-08T08:37:03.164Z,101247.78
2023-08-08T08:39:29.629Z,101249.00
2023-08-08T08:42:02.818Z,101252.41
2023-08-08T08:44:32.210Z,101258.09
2023-08-08T08:47:02.546Z,101250.97
2023-08-08T08:49:31.824Z,101257.59
2023-08-08T08:52:06.047Z,101264.63
2023-08-08T08:54:33.828Z,101267.16
2023-08-08T08:57:00.334Z,101262.84
2023-08-08T08:59:27.044Z,101266.97
2023-08-08T09:01:54.700Z,101268.88
2023-08-08T09:04:22.899Z,101267.66
2023-08-08T09:06:51.328Z,101275.75
2023-08-08T09:09:18.615Z,101265.47
2023-08-08T09:11:50.594Z,101272.97
2023-08-08T09:14:21.718Z,101272.09
2023-08-08T09:16:49.156Z,101273.78
2023-08-08T09:19:17.007Z,101269.19
2023-08-08T09:21:43.451Z,101271.75
2023-08-08T09:24:10.483Z,101276.00
2023-08-08T09:26:37.086Z,101272.66
2023-08-08T09:29:04.591Z,101265.63
2023-08-08T09:31:31.493Z,101275.44
2023-08-08T09:34:00.465Z,101279.69
2023-08-08T09:36:27.139Z,101274.69
2023-08-08T09:38:54.847Z,101278.09
2023-08-08T09:41:22.926Z,101285.50
2023-08-08T09:43:50.924Z,101290.72
2023-08-08T09:46:17.674Z,101280.44
2023-08-08T09:48:44.699Z,101281.34
2023-08-08T09:51:11.601Z,101294.25
2023-08-08T09:53:39.839Z,101292.00
2023-08-08T09:56:07.412Z,101288.59
2023-08-08T09:58:34.485Z,101290.84
2023-08-08T10:01:01.256Z,101288.38
2023-08-08T10:03:29.473Z,101283.75
2023-08-08T10:05:56.108Z,101285.41
2023-08-08T10:08:22.973Z,101288.81
2023-08-08T10:10:51.159Z,101285.41
2023-08-08T10:13:24.804Z,101286.59
2023-08-08T10:15:52.387Z,101287.34
2023-08-08T10:18:22.096Z,101280.53
2023-08-08T10:20:50.400Z,101286.97
2023-08-08T10:23:18.069Z,101290.66
2023-08-08T10:25:45.850Z,101271.22
2023-08-08T10:28:26.297Z,101277.88
2023-08-08T10:30:58.653Z,101277.28
2023-08-08T10:33:27.692Z,101281.75
2023-08-08T10:35:56.938Z,101269.56
2023-08-08T10:38:27.846Z,101281.66
2023-08-08T10:40:59.463Z,101277.19
2023-08-08T10:43:28.203Z,101275.59
2023-08-08T10:46:07.613Z,101279.44
2023-08-08T10:48:50.147Z,101292.81
2023-08-08T10:51:17.867Z,101283.81
2023-08-08T10:53:44.359Z,101280.00
2023-08-08T10:56:14.229Z,101283.22
2023-08-08T10:58:43.098Z,101281.69
2023-08-08T11:01:10.413Z,101298.50
2023-08-08T11:03:40.175Z,101287.69
2023-08-08T11:06:10.843Z,101294.78
2023-08-08T11:08:39.585Z,101287.00
2023-08-08T11:11:07.367Z,101297.66
2023-08-08T11:13:34.229Z,101290.66
2023-08-08T11:16:02.927Z,101294.91
2023-08-08T11:18:29.693Z,101298.31
2023-08-08T11:21:05.247Z,101297.28
2023-08-08T11:23:39.946Z,101299.28
2023-08-08T11:28:36.280Z,101299.09
2023-08-08T11:31:02.842Z,101295.16
2023-08-08T11:33:29.415Z,101297.78
2023-08-08T11:35:57.758Z,101292.94
2023-08-08T11:38:24.966Z,101290.44
2023-08-08T11:40:53.483Z,101291.72
2023-08-08T11:43:20.669Z,101282.38
2023-08-08T11:45:50.409Z,101286.28
2023-08-08T11:48:16.881Z,101286.16
2023-08-08T11:50:45.596Z,101288.66
2023-08-08T11:53:12.856Z,101287.47
2023-08-08T11:55:39.407Z,101292.00
2023-08-08T11:58:06.673Z,101297.22
2023-08-08T12:00:33.203Z,101284.66
2023-08-08T12:03:02.077Z,101290.25
2023-08-08T12:05:29.082Z,101284.22
2023-08-08T12:07:56.086Z,101294.28
2023-08-08T12:10:24.317Z,101286.94
2023-08-08T12:12:57.687Z,101282.69
2023-08-08T12:15:24.486Z,101300.34
2023-08-08T12:17:51.039Z,101293.25
2023-08-08T12:20:17.689Z,101292.06
2023-08-08T12:22:44.144Z,101292.06
2023-08-08T12:25:10.639Z,101288.13
2023-08-08T12:27:37.144Z,101291.94
2023-08-08T12:30:03.892Z,101282.31
2023-08-08T12:32:32.603Z,101285.63
2023-08-08T12:34:59.133Z,101292.38
2023-08-08T12:37:25.653Z,101284.19
2023-08-08T12:39:52.482Z,101294.38
2023-08-08T12:42:19.175Z,101294.75
2023-08-08T12:44:46.332Z,101294.97
2023-08-08T12:47:13.714Z,101298.28
2023-08-08T12:49:42.257Z,101300.09
2023-08-08T12:52:08.716Z,101305.75
2023-08-08T12:54:37.141Z,101299.03
2023-08-08T12:57:04.369Z,101292.25
2023-08-08T12:59:31.368Z,101286.97
2023-08-08T13:01:58.150Z,101297.53
2023-08-08T13:04:25.119Z,101295.00
2023-08-08T13:06:51.563Z,101288.53
2023-08-08T13:09:18.116Z,101302.03
2023-08-08T13:11:44.627Z,101303.81
2023-08-08T13:14:11.080Z,101298.97
2023-08-08T13:16:37.607Z,101306.09
2023-08-08T13:19:04.958Z,101300.84
2023-08-08T13:21:31.372Z,101302.28
2023-08-08T13:23:58.734Z,101293.03
2023-08-08T13:26:25.189Z,101313.19
2023-08-08T13:28:51.733Z,101305.25
2023-08-08T13:31:18.261Z,101313.13
2023-08-08T13:33:44.800Z,101312.31
2023-08-08T13:36:11.210Z,101312.31
2023-08-08T13:38:37.737Z,101321.91
2023-08-08T13:41:04.388Z,101320.50
2023-08-08T13:43:31.717Z,101320.84
2023-08-08T13:45:58.414Z,101317.06
2023-08-08T13:48:24.957Z,101321.44
2023-08-08T13:50:51.902Z,101321.22
2023-08-08T13:53:18.428Z,101319.56
2023-08-08T13:55:45.608Z,101331.28
2023-08-08T13:58:12.175Z,101332.72
2023-08-08T14:00:38.627Z,101330.09
2023-08-08T14:03:05.227Z,101325.16
2023-08-08T14:05:32.542Z,101325.97
2023-08-08T14:07:59.040Z,101318.28
2023-08-08T14:10:25.492Z,101328.50
2023-08-08T14:12:51.946Z,101326.84
2023-08-08T14:15:18.564Z,101319.41
2023-08-08T14:17:46.543Z,101323.56
2023-08-08T14:20:13.201Z,101318.56
2023-08-08T14:22:39.667Z,101316.81
2023-08-08T14:25:07.196Z,101308.13
2023-08-08T14:27:33.947Z,101310.28
2023-08-08T14:30:00.924Z,101299.59
2023-08-08T14:32:27.550Z,101291.56
2023-08-08T14:34:54.349Z,101301.13
2023-08-08T14:37:21.326Z,101288.22
2023-08-08T14:39:48.081Z,101291.03
2023-08-08T14:42:14.701Z,101297.69
2023-08-08T14:44:41.420Z,101302.31
2023-08-08T14:47:08.453Z,101299.59
2023-08-08T14:49:35.045Z,101307.66
2023-08-08T14:52:01.795Z,101313.59
2023-08-08T14:54:28.551Z,101313.47
2023-08-08T14:56:55.073Z,101322.59
2023-08-08T14:59:21.576Z,101324.28
2023-08-08T15:01:48.072Z,101317.81
2023-08-08T15:04:14.575Z,101319.84
2023-08-08T15:06:41.689Z,101311.31
2023-08-08T15:09:08.257Z,101317.16
2023-08-08T15:11:34.666Z,101317.84
2023-08-08T15:14:01.074Z,101314.09
2023-08-08T15:16:27.527Z,101323.09
2023-08-08T15:18:53.989Z,101320.59
2023-08-08T15:21:20.639Z,101312.75
2023-08-08T15:23:47.541Z,101315.03
2023-08-08T15:26:17.320Z,101315.38
2023-08-08T15:28:43.846Z,101314.91
2023-08-08T15:31:10.365Z,101304.22
2023-08-08T15:33:37.820Z,101299.72
2023-08-08T15:36:04.578Z,101300.09
2023-08-08T15:38:31.364Z,101310.84
2023-08-08T15:40:58.166Z,101301.75
2023-08-08T15:43:25.839Z,101299.13
2023-08-08T15:45:53.148Z,101292.84
2023-08-08T15:48:19.675Z,101296.84
2023-08-08T15:50:46.598Z,101294.75
2023-08-08T15:53:13.024Z,101296.75
2023-08-08T15:55:39.479Z,101296.75
2023-08-08T15:58:05.935Z,101307.78
2023-08-08T16:00:32.387Z,101299.22
2023-08-08T16:03:00.396Z,101302.09
2023-08-08T16:05:29.110Z,101295.34
2023-08-08T16:07:55.833Z,101297.00
2023-08-08T16:10:23.981Z,101297.59
2023-08-08T16:12:50.853Z,101297.59
2023-08-08T16:15:19.059Z,101292.94
2023-08-08T16:17:46.597Z,101292.63
2023-08-08T16:20:13.184Z,101292.13
2023-08-08T16:22:39.704Z,101290.59
2023-08-08T16:25:06.674Z,101301.84
2023-08-08T16:27:33.173Z,101313.59
2023-08-08T16:30:00.084Z,101304.44
2023-08-08T16:32:26.615Z,101299.34
2023-08-08T16:34:54.025Z,101301.69
2023-08-08T16:37:20.458Z,101281.22
2023-08-08T16:39:48.114Z,101289.03
2023-08-08T16:42:16.358Z,101278.22
2023-08-08T16:44:43.057Z,101280.13
2023-08-08T16:47:09.564Z,101281.19
2023-08-08T16:49:37.017Z,101278.47
2023-08-08T16:52:04.079Z,101275.50
2023-08-08T16:54:30.903Z,101286.28
2023-08-08T16:56:57.440Z,101293.03
2023-08-08T16:59:23.948Z,101286.38
2023-08-08T17:01:50.394Z,101290.06
2023-08-08T17:04:18.028Z,101281.03
2023-08-08T17:06:44.715Z,101272.38
2023-08-08T17:09:11.262Z,101266.09
2023-08-08T17:11:38.393Z,101271.09
2023-08-08T17:14:05.368Z,101275.72
2023-08-08T17:16:32.197Z,101273.47
2023-08-08T17:18:58.830Z,101283.53
2023-08-08T17:21:25.341Z,101285.06
2023-08-08T17:23:51.997Z,101276.28
2023-08-08T17:26:18.630Z,101278.63
2023-08-08T17:28:45.121Z,101274.25
2023-08-08T17:31:11.670Z,101267.75
2023-08-08T17:33:38.576Z,101272.16
2023-08-08T17:36:05.331Z,101271.16
2023-08-08T17:38:31.922Z,101277.09
2023-08-08T17:40:58.442Z,101268.06
2023-08-08T17:43:24.901Z,101267.03
2023-08-08T17:45:51.431Z,101265.59
2023-08-08T17:48:18.004Z,101263.34
2023-08-08T17:50:44.482Z,101269.41
2023-08-08T17:53:10.956Z,101268.31
2023-08-08T17:55:39.269Z,101266.44
2023-08-08T17:58:05.775Z,101260.63
2023-08-08T18:00:32.408Z,101260.03
2023-08-08T18:02:59.225Z,101256.22
2023-08-08T18:05:25.923Z,101256.59
2023-08-08T18:07:52.431Z,101249.25
2023-08-08T18:10:19.034Z,101257.44
2023-08-08T18:12:45.441Z,101258.72
2023-08-08T18:15:11.913Z,101258.97
2023-08-08T18:17:38.394Z,101260.63
2023-08-08T18:20:09.515Z,101256.47
2023-08-08T18:22:36.706Z,101257.31
2023-08-08T18:25:03.997Z,101262.13
2023-08-08T18:27:30.523Z,101257.53
2023-08-08T18:29:56.921Z,101253.38
2023-08-08T18:32:23.436Z,101248.16
2023-08-08T18:34:49.882Z,101246.50
2023-08-08T18:37:16.371Z,101249.34
2023-08-08T18:39:42.816Z,101243.28
2023-08-08T18:42:09.267Z,101241.50
2023-08-08T18:44:35.830Z,101241.50
2023-08-08T18:47:02.241Z,101252.97
2023-08-08T18:49:29.301Z,101245.88
2023-08-08T18:51:55.763Z,101235.56
2023-08-08T18:54:22.344Z,101230.38
2023-08-08T18:56:48.870Z,101230.00
2023-08-08T18:59:15.352Z,101222.66
2023-08-08T19:01:41.836Z,101218.03
2023-08-08T19:04:08.497Z,101226.88
2023-08-08T19:06:35.024Z,101232.16
2023-08-08T19:09:09.333Z,101234.38
2023-08-08T19:11:37.045Z,101247.53
2023-08-08T19:14:03.890Z,101231.66
2023-08-08T19:16:31.776Z,101232.47
2023-08-08T19:18:58.364Z,101227.88
2023-08-08T19:21:24.972Z,101234.38
2023-08-08T19:23:51.479Z,101222.50
2023-08-08T19:26:17.921Z,101234.47
2023-08-08T19:28:45.544Z,101240.94
2023-08-08T19:31:13.167Z,101234.69
2023-08-08T19:33:43.433Z,101228.66
2023-08-08T19:36:15.081Z,101224.47
2023-08-08T19:38:41.525Z,101227.53
2023-08-08T19:41:09.126Z,101225.38
2023-08-08T19:43:35.649Z,101229.13
2023-08-08T19:46:02.139Z,101225.47
2023-08-08T19:48:28.635Z,101225.53
2023-08-08T19:50:55.121Z,101211.94
2023-08-08T19:53:21.616Z,101217.84
2023-08-08T19:55:48.567Z,101216.41
2023-08-08T19:58:16.784Z,101222.69
2023-08-08T20:00:43.433Z,101224.81
2023-08-08T20:03:10.105Z,101220.41
2023-08-08T20:05:36.600Z,101208.50
2023-08-08T20:08:03.162Z,101213.31
2023-08-08T20:10:29.568Z,101217.34
2023-08-08T20:12:56.009Z,101208.56
2023-08-08T20:15:22.519Z,101207.50
2023-08-08T20:17:49.068Z,101214.25
2023-08-08T20:20:15.643Z,101218.47
2023-08-08T20:22:42.144Z,101220.13
2023-08-08T20:25:09.056Z,101230.41
2023-08-08T20:27:35.505Z,101227.09
2023-08-08T20:30:02.207Z,101226.97
2023-08-08T20:32:28.770Z,101235.56
2023-08-08T20:34:55.357Z,101228.91
2023-08-08T20:37:21.858Z,101229.13
2023-08-08T20:39:48.349Z,101225.56
2023-08-08T20:42:14.833Z,101218.47
2023-08-08T20:44:41.298Z,101216.44
2023-08-08T20:47:07.700Z,101197.41
2023-08-08T20:49:34.204Z,101197.66
2023-08-08T20:52:00.689Z,101187.59
2023-08-08T20:54:27.927Z,101188.63
2023-08-08T20:56:59.364Z,101194.94
2023-08-08T20:59:26.850Z,101193.72
2023-08-08T21:01:54.215Z,101199.81
2023-08-08T21:04:22.229Z,101201.13
2023-08-08T21:06:48.780Z,101198.25
2023-08-08T21:09:15.269Z,101199.25
2023-08-08T21:11:41.721Z,101193.44
2023-08-08T21:14:08.128Z,101181.75
2023-08-08T21:16:34.615Z,101180.91
2023-08-08T21:19:01.121Z,101179.03
2023-08-08T21:21:27.532Z,101177.38
2023-08-08T21:23:55.110Z,101173.22
2023-08-08T21:26:33.788Z,101182.22
2023-08-08T21:29:04.755Z,101187.66
2023-08-08T21:31:31.257Z,101189.06
2023-08-08T21:33:57.684Z,101195.13
2023-08-08T21:36:24.193Z,101204.56
2023-08-08T21:38:50.617Z,101202.66
2023-08-08T21:41:17.009Z,101217.91
2023-08-08T21:43:43.453Z,101208.72
2023-08-08T21:46:09.940Z,101207.91
2023-08-08T21:48:36.369Z,101209.53
2023-08-08T21:51:02.886Z,101210.38
2023-08-08T21:53:29.682Z,101206.84
2023-08-08T21:55:56.168Z,101224.59
2023-08-08T21:58:22.635Z,101217.88
2023-08-08T22:00:49.116Z,101222.72
2023-08-08T22:03:15.838Z,101224.38
2023-08-08T22:05:42.739Z,101228.16
2023-08-08T22:08:09.175Z,101234.59
2023-08-08T22:10:35.738Z,101228.56
2023-08-08T22:13:03.143Z,101214.59
2023-08-08T22:15:29.772Z,101233.88
2023-08-08T22:18:05.573Z,101230.09
2023-08-08T22:20:32.363Z,101228.19
2023-08-08T22:23:09.511Z,101230.28
2023-08-08T22:25:45.155Z,101226.53
2023-08-08T22:28:11.613Z,101223.00
2023-08-08T22:30:38.088Z,101213.38
2023-08-08T22:33:05.132Z,101222.81
2023-08-08T22:35:31.676Z,101220.09
2023-08-08T22:37:58.117Z,101222.59
2023-08-08T22:40:24.606Z,101216.34
2023-08-08T22:42:52.138Z,101219.66
2023-08-08T22:45:18.943Z,101211.50
2023-08-08T22:47:45.496Z,101212.31
2023-08-08T22:50:11.976Z,101201.44
2023-08-08T22:52:38.498Z,101202.28
2023-08-08T22:55:05.758Z,101202.28
2023-08-08T22:57:32.218Z,101197.91
2023-08-08T22:59:58.690Z,101192.25
2023-08-08T23:02:25.194Z,101200.38
2023-08-08T23:04:51.936Z,101202.06
2023-08-08T23:07:19.402Z,101197.47
2023-08-08T23:09:46.097Z,101196.63
2023-08-08T23:12:12.537Z,101202.91
2023-08-08T23:14:39.016Z,101210.44
2023-08-08T23:17:05.489Z,101208.53
2023-08-08T23:19:31.990Z,101216.50
2023-08-08T23:21:58.484Z,101207.50
2023-08-08T23:24:25.059Z,101208.41
2023-08-08T23:26:51.874Z,101210.53
2023-08-08T23:29:18.387Z,101209.91
2023-08-08T23:31:44.882Z,101208.50
2023-08-08T23:34:11.357Z,101208.50
2023-08-08T23:36:37.911Z,101208.69
2023-08-08T23:39:05.545Z,101210.59
2023-08-08T23:41:32.166Z,101208.69
2023-08-08T23:43:58.810Z,101208.94
2023-08-08T23:46:26.070Z,101210.59
2023-08-08T23:48:52.577Z,101201.84
2023-08-08T23:51:19.005Z,101200.38
2023-08-08T23:53:45.825Z,101202.88
2023-08-08T23:56:12.337Z,101202.28
2023-08-08T23:58:38.803Z,101203.34
